Portada
METAR-TAF:

METAR-TAF

Aeroports :

Madison, Dakota del Sud, Estats Units d'Amèrica

latitud: 44-00-59N, longitud: 097-05-08W, altitud: 524 m

Observació

L'informe es va fer fa 12 minuts, a les 15:35 UTC
Vent 3 kt del Nord-Est
Temperatura -8°C
Humitat 100%
Pressió 1019 hPa
Visibilitat: 1.6 km
Cel cobert a una alçada de 300 ft
boirina

METAR: KMDS 281535Z AUTO 04003KT 1SM BR OVC003 M08/M08 A3010 RMK AO2

Hora: 08:47 (15:47 UTC)


TAF: manca

Observacions i pronòstics meteorològics de més de 4000 aeroports (METAR i TAF).

Les estacions disponibles són els punts grocs i vermells al mapa.

Posi el ratolí al punt desitjat per veure el nom de l'estació.

Feu clic per veure les observacions i els pronòstics meteorològics.

Per canviar el mapa: feu clic els botons verds amb una creu de color negre per apropar; al botó verd amb un guió per allunyar la imatge; o en les fletxes verdes per a mapes adjacents.


METAR-TAF: